Blue Horizons Flying Club, Inc.

Radar AviationWeather DUATS TFRs Wunderground Accuweather Weather.com

alt : Radar

TAFs

KTOL 310543Z 3106/0106 21010KT P6SM SCT030 BKN120
   FM310700 22010KT P6SM SCT012 OVC030
   FM311000 23010KT 4SM BR SCT008 OVC012
   FM311400 23010KT P6SM SCT008 OVC012
   FM311700 24010KT P6SM BKN020
   FM312000 24010KT P6SM BKN035
KCLE 310540Z 3106/0112 21010KT P6SM VCSH SCT040 OVC100
   FM311000 22010KT P6SM SCT012 OVC030
   FM311200 22010KT P6SM VCSH SCT008 OVC012
   FM311800 23010KT P6SM OVC020
KFDY 310540Z 3106/0106 21010KT P6SM SCT030 BKN120
   FM310800 22010KT P6SM SCT012 BKN030
   FM311000 23010KT 4SM BR SCT008 OVC012
   FM311400 23010KT P6SM SCT008 OVC012
   FM311600 24010KT P6SM BKN020
   FM312000 24010KT P6SM BKN035
KJXN 310540Z 3106/0106 22006KT P6SM -SHRA VCTS SCT040CB BKN060
     TEMPO 3106/3107 4SM -TSRA BR SCT025CB OVC040
   FM310900 22003KT 6SM HZ BKN008
   FM311000 22003KT 4SM BR BKN004
   FM311100 VRB03KT 1SM BR OVC002
   FM311400 VRB03KT 5SM BR BKN008
   FM311600 23005KT 6SM HZ BKN015
   FM311800 25008KT P6SM VCSH BKN035
   FM010000 VRB03KT P6SM SKC
KDTW 310526Z 3106/0112 20014KT P6SM SCT025 BKN080
     TEMPO 3106/3109 5SM TSRA BR BKN025CB OVC035
   FM310900 21012KT 5SM BR BKN018 OVC028
   FM311300 23010KT P6SM BKN028
   FM311900 21006KT P6SM SCT040 BKN080
   FM010000 20005KT P6SM SCT080
KFWA 310520Z 3106/0106 22008KT P6SM VCSH BKN035 OVC150
   FM311100 22005KT 4SM BR VCSH BKN008 OVC015
   FM311500 23007KT P6SM OVC020
   FM312000 22006KT P6SM BKN035

METARs

KJXN 310556Z 21007KT 8SM -RA FEW060 BKN090 OVC110 20/19 A2996 RMK AO2 RAB10 SLP139 P0005 60056 T02000189 10233 20200 53006
KDUH 310554Z AUTO 23005KT 10SM BKN025 25/20 A2997 RMK AO2
KFWA 310554Z 20011KT 10SM FEW019 SCT055 BKN250 23/21 A2998 RMK AO2 SLP144 T02280206 10244 20222 50003
KDTW 310553Z 20014G22KT 8SM FEW027 SCT140 OVC250 24/21 A2994 RMK AO2 SLP133 T02390206 10267 20239 51007
KFDY 310553Z AUTO 21010KT 10SM BKN060 BKN110 24/20 A2999 RMK AO2 SLP143 T02390200 10256 20239 53003
KTDZ 310553Z AUTO 22010KT 10SM CLR 24/20 A2997 RMK AO2 SLP142 T02440200 10267 20244 51004 TSNO
KTOL 310552Z 23008KT 9SM FEW026 23/21 A2996 RMK AO2 SLP141 T02330206 10261 20233 51006
KCLE 310551Z 21009KT 10SM BKN100 25/18 A3002 RMK AO2 SLP156 60000 T02500183 10278 20244 51005

alt : Satellite

alt : TFRs